Time;durP1;ratioP1;P1;durP2;ratioP2;P2;SDS_P1;SDS_P2;PMS_P1;PMS_P2;Temp;Humidity;BMP_temperature;BMP_pressure;BME280_temperature;BME280_humidity;BME280_pressure;Samples;Min_cycle;Max_cycle;Signal;HPM_P1;HPM_P2
2022/11/06 00:00:28;;;;;;;;;9.00;6.50;;;;;10.19;79.65;101257.16;5031756;28;10352;-67
2022/11/06 00:02:59;;;;;;;;;10.25;9.75;;;;;10.26;79.21;101257.31;5032106;28;10369;-66
2022/11/06 00:08:12;;;;;;;;;11.25;11.25;;;;;10.09;79.31;101256.59;5032413;28;10970;-67
2022/11/06 00:10:39;;;;;;;;;9.00;9.00;;;;;10.13;79.56;101257.91;5017373;28;11200;-66
2022/11/06 00:13:06;;;;;;;;;9.00;9.00;;;;;10.19;79.54;101265.22;5012182;28;10173;-66
2022/11/06 00:15:33;;;;;;;;;13.75;13.00;;;;;10.25;79.39;101261.00;5035253;28;10379;-67
2022/11/06 00:17:59;;;;;;;;;9.50;8.00;;;;;10.29;79.24;101263.19;5032006;28;10385;-66
2022/11/06 00:20:25;;;;;;;;;10.00;10.00;;;;;10.29;79.04;101270.38;5031126;28;10250;-66
2022/11/06 00:22:52;;;;;;;;;11.00;10.25;;;;;10.33;79.72;101264.47;5031552;28;10249;-66
2022/11/06 00:25:18;;;;;;;;;11.75;10.75;;;;;10.37;79.32;101257.72;5027955;28;10418;-66
2022/11/06 00:27:45;;;;;;;;;11.00;10.00;;;;;10.31;79.26;101266.50;5023841;28;10424;-66
2022/11/06 00:30:11;;;;;;;;;8.00;8.00;;;;;10.25;79.63;101271.75;5021646;28;10390;-66
2022/11/06 00:32:38;;;;;;;;;7.50;6.25;;;;;10.28;80.39;101266.84;5019668;28;10562;-65
2022/11/06 00:35:05;;;;;;;;;8.25;7.00;;;;;10.29;80.31;101256.94;5028049;28;10255;-66
2022/11/06 00:37:34;;;;;;;;;12.25;11.00;;;;;10.27;79.97;101254.44;5021764;28;10156;-66
2022/11/06 00:40:00;;;;;;;;;11.00;11.00;;;;;10.24;80.60;101244.00;5027937;28;10326;-65
2022/11/06 00:42:27;;;;;;;;;10.00;10.00;;;;;10.24;81.04;101252.06;5024409;28;10360;-65
2022/11/06 00:44:53;;;;;;;;;9.00;9.00;;;;;10.08;81.55;101253.03;5020003;28;10287;-66
2022/11/06 00:47:19;;;;;;;;;8.75;8.50;;;;;10.16;81.56;101242.22;5022173;28;10254;-67
2022/11/06 00:49:46;;;;;;;;;9.50;8.50;;;;;10.19;81.80;101245.56;5019938;28;10436;-67
2022/11/06 00:52:12;;;;;;;;;14.75;13.75;;;;;10.12;81.71;101240.91;5031442;28;10301;-66
2022/11/06 00:54:39;;;;;;;;;11.25;11.00;;;;;10.16;81.85;101239.53;5018651;28;10397;-67
2022/11/06 00:57:05;;;;;;;;;17.50;13.00;;;;;10.15;81.28;101237.03;5021911;28;10315;-66
2022/11/06 00:59:32;;;;;;;;;10.50;9.00;;;;;10.10;81.78;101239.44;5025078;28;10395;-69
2022/11/06 01:01:58;;;;;;;;;12.00;11.75;;;;;10.18;81.57;101235.84;5018171;28;10334;-66
2022/11/06 01:04:25;;;;;;;;;13.50;10.50;;;;;10.17;81.98;101232.31;5020768;28;10401;-66
2022/11/06 01:06:55;;;;;;;;;13.25;11.50;;;;;10.13;81.57;101226.47;5029815;28;10244;-66
2022/11/06 01:09:25;;;;;;;;;8.00;8.00;;;;;10.24;81.66;101232.41;5021502;28;10372;-67
2022/11/06 01:11:54;;;;;;;;;9.00;8.00;;;;;10.30;81.71;101234.41;5030105;28;10142;-66
2022/11/06 01:14:40;;;;;;;;;11.50;10.00;;;;;10.32;81.38;101235.88;5026990;28;10467;-65
2022/11/06 01:17:06;;;;;;;;;11.50;10.75;;;;;10.26;81.42;101239.31;5026938;28;10311;-67
2022/11/06 01:19:32;;;;;;;;;11.75;9.75;;;;;10.22;81.93;101231.75;5020884;28;10306;-67
2022/11/06 01:21:59;;;;;;;;;8.50;8.50;;;;;10.15;81.87;101226.25;5022550;28;10539;-65
2022/11/06 01:24:27;;;;;;;;;10.25;9.75;;;;;10.21;82.35;101224.69;5026783;28;10368;-65
2022/11/06 01:26:54;;;;;;;;;12.00;10.25;;;;;10.20;81.95;101220.34;5028871;28;11139;-65
2022/11/06 01:29:41;;;;;;;;;12.50;12.50;;;;;10.19;82.74;101215.97;5029777;28;11037;-66
2022/11/06 01:32:07;;;;;;;;;12.25;10.25;;;;;10.18;82.75;101217.84;5029747;28;10517;-66
2022/11/06 01:34:33;;;;;;;;;11.25;9.50;;;;;10.26;82.70;101222.34;5020084;28;10443;-64
2022/11/06 01:37:00;;;;;;;;;11.50;9.75;;;;;10.31;82.57;101219.94;5029556;28;10166;-66
2022/11/06 01:39:27;;;;;;;;;12.25;11.00;;;;;10.35;82.29;101222.06;5023372;28;10163;-66
2022/11/06 01:41:53;;;;;;;;;17.25;13.50;;;;;10.29;82.14;101222.81;5020946;28;10345;-66
2022/11/06 01:44:32;;;;;;;;;12.75;12.00;;;;;10.26;82.82;101225.88;5027623;28;10395;-65
2022/11/06 01:47:01;;;;;;;;;13.00;13.00;;;;;10.30;82.63;101229.84;5029834;28;10333;-66
2022/11/06 01:49:31;;;;;;;;;9.00;9.00;;;;;10.33;82.46;101223.25;5029952;28;10423;-66
2022/11/06 01:52:01;;;;;;;;;15.75;12.75;;;;;10.21;83.08;101228.25;5012881;28;10464;-66
2022/11/06 01:54:30;;;;;;;;;12.50;10.50;;;;;10.20;83.42;101220.34;5020965;28;10491;-64
2022/11/06 01:56:59;;;;;;;;;17.00;14.50;;;;;10.15;83.33;101216.34;5026669;28;10433;-65
2022/11/06 01:59:29;;;;;;;;;12.00;11.25;;;;;10.16;83.74;101209.09;5011461;28;11281;-65
2022/11/06 02:01:55;;;;;;;;;15.75;11.75;;;;;10.19;83.61;101203.34;5026563;28;10398;-66
2022/11/06 02:04:25;;;;;;;;;14.00;12.75;;;;;10.19;83.82;101205.22;5026295;28;10466;-66
2022/11/06 02:06:52;;;;;;;;;15.00;13.00;;;;;10.11;83.79;101196.19;5021175;28;11038;-65
2022/11/06 02:09:19;;;;;;;;;15.25;12.75;;;;;10.11;84.00;101190.81;5027644;28;11051;-64
2022/11/06 02:11:56;;;;;;;;;8.25;8.25;;;;;10.10;84.14;101202.59;5027147;28;10405;-66
2022/11/06 02:14:41;;;;;;;;;13.50;12.00;;;;;10.05;84.63;101191.56;5012118;28;11058;-66
2022/11/06 02:17:37;;;;;;;;;15.50;14.00;;;;;10.01;85.02;101189.44;5028185;28;10266;-65
2022/11/06 02:20:34;;;;;;;;;16.00;13.50;;;;;9.96;84.52;101189.13;5027966;28;10485;-66
2022/11/06 02:23:18;;;;;;;;;16.50;12.75;;;;;10.04;84.97;101191.72;5018473;28;10550;-66
2022/11/06 02:25:53;;;;;;;;;12.75;12.25;;;;;10.05;84.84;101186.19;5021489;28;10558;-66
2022/11/06 02:28:24;;;;;;;;;10.50;10.25;;;;;10.17;84.71;101191.97;5012475;28;10495;-65
2022/11/06 02:30:54;;;;;;;;;12.75;12.50;;;;;10.14;85.08;101178.88;5019458;28;10356;-65
2022/11/06 02:33:39;;;;;;;;;13.75;13.75;;;;;10.14;84.72;101182.38;5028646;28;10544;-66
2022/11/06 02:36:10;;;;;;;;;18.75;17.25;;;;;10.10;84.65;101175.72;5019813;28;10549;-65
2022/11/06 02:38:44;;;;;;;;;14.75;14.75;;;;;10.12;84.81;101187.09;5013782;28;10572;-66
2022/11/06 02:41:24;;;;;;;;;11.25;10.50;;;;;10.08;84.77;101183.09;5014252;28;10572;-65
2022/11/06 02:43:55;;;;;;;;;13.75;13.25;;;;;10.12;85.07;101179.03;5020368;28;11176;-65
2022/11/06 02:46:34;;;;;;;;;16.00;14.50;;;;;10.11;84.94;101180.06;5024416;28;10740;-66
2022/11/06 02:49:11;;;;;;;;;10.25;10.25;;;;;10.13;84.75;101169.13;5028144;28;10478;-66
2022/11/06 02:51:44;;;;;;;;;16.00;13.75;;;;;10.05;85.08;101182.66;5026521;28;10318;-65
2022/11/06 02:54:12;;;;;;;;;11.00;11.00;;;;;10.04;84.92;101189.03;5022919;28;10500;-65
2022/11/06 02:56:43;;;;;;;;;14.75;11.00;;;;;10.05;85.54;101178.13;5021492;28;11232;-65
2022/11/06 02:59:30;;;;;;;;;13.00;11.25;;;;;10.10;85.05;101182.94;5015721;28;10488;-64
2022/11/06 03:02:00;;;;;;;;;10.00;10.00;;;;;10.12;85.15;101162.06;5022816;28;10429;-65
2022/11/06 03:04:44;;;;;;;;;12.50;11.75;;;;;10.06;84.95;101163.63;5028603;28;10414;-65
2022/11/06 03:07:21;;;;;;;;;13.50;13.50;;;;;10.03;85.25;101153.25;5021550;28;10704;-66
2022/11/06 03:09:49;;;;;;;;;8.50;8.50;;;;;10.14;84.81;101157.34;5026682;28;10493;-66
2022/11/06 03:12:18;;;;;;;;;12.25;10.00;;;;;10.18;85.40;101147.06;5024769;28;10421;-66
2022/11/06 03:15:10;;;;;;;;;11.50;11.50;;;;;10.18;85.17;101145.19;5019143;28;10507;-64
2022/11/06 03:17:49;;;;;;;;;15.25;12.00;;;;;10.11;84.74;101155.84;5024066;28;10426;-66
2022/11/06 03:20:15;;;;;;;;;15.00;14.00;;;;;10.10;85.48;101158.72;5018438;28;10563;-66
2022/11/06 03:22:54;;;;;;;;;14.75;13.25;;;;;10.07;84.82;101151.03;5032839;28;10486;-67
2022/11/06 03:25:28;;;;;;;;;13.00;12.25;;;;;10.09;85.45;101151.69;5023165;28;10578;-65
2022/11/06 03:28:07;;;;;;;;;16.75;14.75;;;;;10.14;85.13;101154.66;5024669;28;11135;-66
2022/11/06 03:30:38;;;;;;;;;14.25;13.75;;;;;10.14;85.50;101154.66;5031094;28;10466;-66
2022/11/06 03:33:14;;;;;;;;;13.75;13.00;;;;;10.06;85.35;101147.50;5019739;28;10328;-66
2022/11/06 03:36:02;;;;;;;;;18.75;14.00;;;;;10.09;86.16;101143.63;5026620;28;10458;-66
2022/11/06 03:38:40;;;;;;;;;13.75;13.00;;;;;10.12;85.55;101143.22;5023540;28;10412;-66
2022/11/06 03:41:13;;;;;;;;;15.25;15.25;;;;;10.18;85.74;101142.50;5026109;28;10525;-66
2022/11/06 03:43:44;;;;;;;;;16.25;14.50;;;;;10.17;85.21;101135.47;5028584;28;10499;-66
2022/11/06 03:46:18;;;;;;;;;15.75;12.25;;;;;10.19;85.25;101136.09;5023135;28;10490;-66
2022/11/06 03:49:21;;;;;;;;;11.00;10.50;;;;;10.24;84.95;101133.69;5025662;28;10555;-65
2022/11/06 03:52:05;;;;;;;;;14.75;12.75;;;;;10.14;85.40;101125.06;5004125;28;10468;-66
2022/11/06 03:54:38;;;;;;;;;13.25;12.50;;;;;10.17;85.33;101127.41;5027138;28;10510;-66
2022/11/06 03:57:42;;;;;;;;;16.00;14.00;;;;;10.13;85.07;101131.47;5019128;28;10485;-66
2022/11/06 04:00:10;;;;;;;;;17.00;15.25;;;;;10.14;85.93;101143.91;5013840;28;10633;-66
2022/11/06 04:02:45;;;;;;;;;14.50;12.25;;;;;10.09;85.63;101140.94;5032440;28;10638;-65
2022/11/06 04:05:20;;;;;;;;;16.00;14.25;;;;;10.14;85.97;101133.97;5027158;28;11079;-64
2022/11/06 04:16:17;;;;;;;;;14.50;11.00;;;;;10.18;85.92;101102.16;5021602;28;10893;-66
2022/11/06 04:18:43;;;;;;;;;13.50;12.00;;;;;10.21;85.83;101091.03;5030354;28;10511;-66
2022/11/06 04:21:27;;;;;;;;;11.50;11.50;;;;;10.21;85.71;101112.56;5031308;28;11043;-65
2022/11/06 04:27:47;;;;;;;;;13.00;13.00;;;;;10.21;85.32;101099.09;5013105;28;10497;-66
2022/11/06 04:30:16;;;;;;;;;17.75;11.75;;;;;10.14;85.29;101096.31;5030459;28;10573;-66
2022/11/06 04:33:01;;;;;;;;;18.00;16.75;;;;;10.17;85.08;101089.75;5017119;28;11211;-66
2022/11/06 04:35:46;;;;;;;;;17.25;16.75;;;;;10.15;85.93;101087.22;5023511;28;10596;-66
2022/11/06 04:38:50;;;;;;;;;15.25;15.25;;;;;10.16;85.54;101090.72;5027762;28;10479;-65
2022/11/06 04:41:33;;;;;;;;;13.50;13.25;;;;;10.16;85.35;101085.34;5025545;28;10543;-66
2022/11/06 04:44:08;;;;;;;;;22.00;16.50;;;;;10.10;85.69;101078.88;5022851;28;10750;-66
2022/11/06 04:46:48;;;;;;;;;18.00;17.50;;;;;10.19;86.15;101085.00;5026808;28;10511;-66
2022/11/06 04:49:16;;;;;;;;;16.00;16.00;;;;;10.19;85.66;101081.47;5014088;28;10512;-66
2022/11/06 04:51:44;;;;;;;;;20.50;20.00;;;;;10.24;85.70;101090.63;5014716;28;10661;-66
2022/11/06 04:54:12;;;;;;;;;15.75;15.25;;;;;10.28;85.25;101085.75;5027728;28;10722;-65
2022/11/06 04:56:39;;;;;;;;;18.50;16.00;;;;;10.24;84.96;101081.75;5019852;28;11393;-65
2022/11/06 04:59:14;;;;;;;;;18.00;15.50;;;;;10.24;84.99;101074.50;5014287;28;10442;-65
2022/11/06 05:01:41;;;;;;;;;19.75;19.00;;;;;10.21;85.24;101077.59;5028116;28;10548;-66
2022/11/06 05:04:08;;;;;;;;;20.50;16.25;;;;;10.19;85.21;101068.03;5021104;28;10572;-65
2022/11/06 05:06:34;;;;;;;;;17.25;15.75;;;;;10.21;85.28;101071.34;5027415;28;10338;-66
2022/11/06 05:09:01;;;;;;;;;17.75;17.75;;;;;10.20;85.17;101075.88;5026534;28;11282;-66
2022/11/06 05:11:27;;;;;;;;;18.50;16.25;;;;;10.24;85.04;101065.59;5019396;28;10531;-65
2022/11/06 05:13:54;;;;;;;;;16.25;12.75;;;;;10.30;85.18;101075.66;5017848;28;10652;-66
2022/11/06 05:16:20;;;;;;;;;26.25;18.50;;;;;10.32;84.58;101071.75;5024250;28;10455;-66
2022/11/06 05:18:46;;;;;;;;;24.75;21.50;;;;;10.29;84.92;101068.59;5025222;28;10653;-66
2022/11/06 05:23:58;;;;;;;;;18.00;15.50;;;;;10.37;84.96;101058.59;5022447;28;10780;-66
2022/11/06 05:26:25;;;;;;;;;21.50;20.00;;;;;10.33;84.99;101061.81;5026966;28;10494;-66
2022/11/06 05:28:51;;;;;;;;;20.50;18.00;;;;;10.34;84.42;101050.03;5015837;28;10537;-66
2022/11/06 05:31:18;;;;;;;;;23.25;20.75;;;;;10.32;85.00;101052.06;5027360;28;11285;-64
2022/11/06 05:33:44;;;;;;;;;24.25;21.50;;;;;10.25;84.75;101046.63;5028869;28;10899;-67
2022/11/06 05:36:10;;;;;;;;;21.00;20.25;;;;;10.29;84.80;101045.22;5017303;28;10848;-65
2022/11/06 05:38:37;;;;;;;;;22.75;20.25;;;;;10.29;84.88;101044.38;5019766;28;10560;-66
2022/11/06 05:41:03;;;;;;;;;20.50;20.25;;;;;10.31;84.99;101043.16;5024072;28;10740;-66
2022/11/06 05:43:30;;;;;;;;;23.00;19.50;;;;;10.36;85.24;101042.59;5029615;28;10715;-66
2022/11/06 05:45:57;;;;;;;;;15.75;15.75;;;;;10.36;85.15;101046.13;5018501;28;10659;-65
2022/11/06 05:48:23;;;;;;;;;17.75;17.75;;;;;10.31;85.06;101029.72;5018829;28;10652;-65
2022/11/06 05:50:49;;;;;;;;;21.50;21.00;;;;;10.33;84.80;101027.69;5042777;23;10661;-66
2022/11/06 05:53:16;;;;;;;;;19.25;18.50;;;;;10.33;85.47;101035.75;5034998;28;10656;-66
2022/11/06 05:55:45;;;;;;;;;18.25;17.25;;;;;10.35;85.24;101038.25;5039630;28;10649;-66
2022/11/06 05:58:13;;;;;;;;;23.00;19.25;;;;;10.26;85.53;101034.84;5045684;28;10645;-66
2022/11/06 06:00:40;;;;;;;;;20.25;16.75;;;;;10.29;85.44;101030.91;5044698;28;11451;-66
2022/11/06 06:03:06;;;;;;;;;18.50;14.00;;;;;10.26;85.38;101032.16;5038689;28;10721;-66
2022/11/06 06:05:33;;;;;;;;;16.00;13.00;;;;;10.18;85.09;101018.75;5021923;28;10553;-65
2022/11/06 06:07:59;;;;;;;;;13.00;9.00;;;;;10.16;85.74;101018.09;5043260;28;10485;-65
2022/11/06 06:10:25;;;;;;;;;15.00;15.00;;;;;10.12;85.60;101019.50;5017099;28;10408;-66
2022/11/06 06:12:52;;;;;;;;;16.00;13.25;;;;;10.17;85.86;101003.66;5017128;28;10411;-66
2022/11/06 06:15:18;;;;;;;;;14.25;14.00;;;;;10.20;85.29;101003.25;5025772;28;10508;-66
2022/11/06 06:17:45;;;;;;;;;11.50;11.50;;;;;10.13;85.38;101003.19;5036968;28;10611;-66
2022/11/06 06:20:12;;;;;;;;;12.75;10.50;;;;;10.18;85.30;101001.78;5021237;28;10398;-64
2022/11/06 06:22:38;;;;;;;;;8.50;8.25;;;;;10.24;85.92;100998.34;5027767;28;11248;-65
2022/11/06 06:25:06;;;;;;;;;10.75;10.75;;;;;10.20;85.37;100992.50;5028354;28;10394;-66
2022/11/06 06:27:46;;;;;;;;;9.50;7.25;;;;;10.11;85.38;100996.31;5026633;28;10434;-65
2022/11/06 06:30:12;;;;;;;;;7.75;7.75;;;;;10.12;85.80;100990.75;5041291;28;10252;-66
2022/11/06 06:32:39;;;;;;;;;10.50;10.50;;;;;10.16;85.44;100994.72;5039252;28;10878;-66
2022/11/06 06:35:05;;;;;;;;;10.25;8.50;;;;;10.18;85.25;100983.78;5025048;28;10230;-66
2022/11/06 06:37:32;;;;;;;;;10.25;7.50;;;;;10.12;85.66;100985.34;5027426;28;10162;-65
2022/11/06 06:39:58;;;;;;;;;8.00;6.00;;;;;10.11;85.72;100989.09;5022779;28;10343;-66
2022/11/06 06:42:27;;;;;;;;;5.00;5.00;;;;;10.06;85.60;100991.50;5033305;28;10311;-65
2022/11/06 06:44:56;;;;;;;;;4.00;4.00;;;;;10.04;85.23;100990.00;5035396;28;10224;-66
2022/11/06 06:47:23;;;;;;;;;5.75;3.25;;;;;9.96;85.38;100992.81;5030923;28;10232;-66
2022/11/06 06:49:49;;;;;;;;;7.00;6.00;;;;;10.03;85.37;100997.25;5042348;28;10225;-65
2022/11/06 06:52:16;;;;;;;;;5.00;2.50;;;;;10.03;85.44;100989.19;5034428;28;10226;-66
2022/11/06 06:54:42;;;;;;;;;8.25;6.50;;;;;10.13;85.65;100992.44;5030991;28;10460;-64
2022/11/06 06:57:08;;;;;;;;;4.00;4.00;;;;;10.09;84.85;100987.63;5027006;28;10889;-65
2022/11/06 06:59:35;;;;;;;;;5.00;4.00;;;;;10.08;84.85;100972.47;5036992;28;10163;-65
2022/11/06 07:02:02;;;;;;;;;5.00;4.25;;;;;10.10;84.59;100967.75;5053117;28;10011;-65
2022/11/06 07:04:28;;;;;;;;;2.50;2.50;;;;;10.10;84.79;100975.84;5026021;28;10276;-64
2022/11/06 07:06:55;;;;;;;;;5.00;3.00;;;;;10.11;84.80;100972.13;5029517;28;10197;-65
2022/11/06 07:09:25;;;;;;;;;4.75;4.75;;;;;9.99;85.01;100979.81;5035629;28;10184;-65
2022/11/06 07:11:51;;;;;;;;;8.25;5.25;;;;;10.05;84.68;100972.88;5017098;28;10174;-65
2022/11/06 07:14:18;;;;;;;;;4.50;4.00;;;;;10.06;84.87;100974.53;5033181;28;10259;-66
2022/11/06 07:16:44;;;;;;;;;9.00;6.50;;;;;10.04;84.72;100980.09;5016724;28;11200;-66
2022/11/06 07:19:18;;;;;;;;;5.75;3.50;;;;;10.04;84.85;100974.72;5038433;28;10312;-67
2022/11/06 07:21:45;;;;;;;;;5.50;5.50;;;;;10.05;84.97;100972.88;5037054;28;10212;-65
2022/11/06 07:24:11;;;;;;;;;6.75;5.25;;;;;10.10;84.41;100983.91;5042883;28;10312;-67
2022/11/06 07:26:38;;;;;;;;;5.00;5.00;;;;;10.01;85.01;100979.66;5031690;28;10225;-67
2022/11/06 07:29:04;;;;;;;;;5.50;5.50;;;;;9.96;84.82;100974.81;5037592;28;10217;-67
2022/11/06 07:31:30;;;;;;;;;5.00;5.00;;;;;9.91;85.31;100971.84;5035186;28;10281;-67
2022/11/06 07:33:57;;;;;;;;;7.50;5.00;;;;;9.86;84.98;100968.91;5018497;28;10317;-66
2022/11/06 07:36:23;;;;;;;;;3.50;3.50;;;;;9.83;85.54;100967.41;5039101;28;10232;-66
2022/11/06 07:38:49;;;;;;;;;4.00;4.00;;;;;9.95;85.48;100975.00;5031920;28;10320;-67
2022/11/06 07:41:16;;;;;;;;;1.00;1.00;;;;;10.03;85.30;100975.75;5033748;28;10152;-65
2022/11/06 07:43:43;;;;;;;;;4.50;2.00;;;;;10.06;85.08;100975.38;5012621;28;10115;-66
2022/11/06 07:46:12;;;;;;;;;5.00;5.00;;;;;10.06;84.56;100985.28;5021522;28;10243;-66
2022/11/06 07:48:38;;;;;;;;;4.00;4.00;;;;;10.11;85.26;100991.78;5031107;28;10530;-68
2022/11/06 07:51:07;;;;;;;;;3.50;3.50;;;;;10.15;84.99;100984.16;5038455;28;10962;-64
2022/11/06 07:53:34;;;;;;;;;4.50;4.50;;;;;10.18;84.88;100997.25;5037480;28;10069;-67
2022/11/06 07:56:00;;;;;;;;;6.50;2.50;;;;;10.16;84.31;100992.03;5039774;28;10093;-66
2022/11/06 07:58:27;;;;;;;;;5.00;5.00;;;;;10.18;84.56;100994.56;5025595;28;10136;-66
2022/11/06 08:00:56;;;;;;;;;4.00;3.25;;;;;10.29;84.40;100996.81;5013550;28;10295;-65
2022/11/06 08:03:24;;;;;;;;;2.50;2.50;;;;;10.27;83.98;101004.22;5026300;28;10074;-66
2022/11/06 08:05:50;;;;;;;;;3.00;2.00;;;;;10.34;83.97;101002.44;5020209;28;10135;-65
2022/11/06 08:08:17;;;;;;;;;4.00;4.00;;;;;10.39;83.53;100997.31;5013528;28;10099;-67
2022/11/06 08:10:43;;;;;;;;;2.00;2.00;;;;;10.44;83.32;100998.59;5016519;28;10105;-66
2022/11/06 08:13:12;;;;;;;;;5.75;4.75;;;;;10.37;83.08;100985.06;5037491;28;10143;-65
2022/11/06 08:15:40;;;;;;;;;4.75;4.25;;;;;10.32;83.39;100976.72;5037613;28;10768;-65
2022/11/06 08:18:07;;;;;;;;;3.00;3.00;;;;;10.26;83.47;100964.88;5031806;28;10052;-67
2022/11/06 08:20:35;;;;;;;;;6.25;4.25;;;;;10.23;83.41;100977.84;5039285;28;10109;-66
2022/11/06 08:23:04;;;;;;;;;4.25;4.00;;;;;10.29;83.45;100969.91;5051697;28;10110;-67
2022/11/06 08:25:31;;;;;;;;;4.25;4.25;;;;;10.25;82.85;100968.59;5040882;28;10194;-65
2022/11/06 08:27:59;;;;;;;;;4.75;4.00;;;;;10.28;83.15;100976.28;5023986;28;10119;-67
2022/11/06 08:30:27;;;;;;;;;4.25;4.25;;;;;10.32;83.07;100972.19;5042443;28;10173;-67
2022/11/06 08:32:54;;;;;;;;;3.75;3.75;;;;;10.31;83.13;100965.16;5032444;28;10234;-67
2022/11/06 08:35:21;;;;;;;;;6.75;4.50;;;;;10.33;83.10;100955.03;5017551;28;10255;-65
2022/11/06 08:37:47;;;;;;;;;3.75;3.00;;;;;10.34;82.90;100945.09;5036757;28;10600;-67
2022/11/06 08:40:13;;;;;;;;;6.25;5.25;;;;;10.33;82.83;100946.97;5033440;28;10155;-67
2022/11/06 08:42:40;;;;;;;;;3.00;3.00;;;;;10.35;83.20;100936.84;5022235;28;10263;-66
2022/11/06 08:45:07;;;;;;;;;2.00;2.00;;;;;10.38;82.85;100936.47;5023256;28;9992;-67
2022/11/06 08:47:33;;;;;;;;;2.50;2.25;;;;;10.37;83.12;100937.50;5017715;28;9999;-66
2022/11/06 08:50:00;;;;;;;;;5.00;4.00;;;;;10.29;83.05;100923.28;5025556;28;10092;-66
2022/11/06 08:52:26;;;;;;;;;3.25;3.25;;;;;10.31;83.16;100922.09;5015278;28;10223;-66
2022/11/06 08:54:59;;;;;;;;;3.25;3.25;;;;;10.31;83.46;100910.50;5011603;28;10171;-67
2022/11/06 08:57:27;;;;;;;;;3.00;3.00;;;;;10.34;83.45;100907.44;5031354;28;10021;-64
2022/11/06 08:59:53;;;;;;;;;4.00;4.00;;;;;10.40;83.02;100907.50;5012348;28;10089;-64
2022/11/06 09:02:19;;;;;;;;;7.50;5.00;;;;;10.35;83.18;100909.09;5033460;28;9921;-65
2022/11/06 09:04:46;;;;;;;;;7.25;3.00;;;;;10.41;82.99;100902.94;5027820;28;10054;-66
2022/11/06 09:07:12;;;;;;;;;4.25;4.25;;;;;10.36;83.01;100905.38;5034465;28;10040;-66
2022/11/06 09:09:38;;;;;;;;;3.25;3.25;;;;;10.31;83.74;100899.75;5042430;28;10037;-65
2022/11/06 09:12:05;;;;;;;;;6.25;5.00;;;;;10.26;83.92;100894.94;5024643;28;10123;-64
2022/11/06 09:14:32;;;;;;;;;3.50;3.50;;;;;10.32;83.80;100899.53;5028695;28;10209;-64
2022/11/06 09:16:59;;;;;;;;;8.75;5.75;;;;;10.35;83.94;100888.41;5036195;28;10016;-64
2022/11/06 09:19:25;;;;;;;;;4.50;2.00;;;;;10.43;84.35;100900.06;5011962;28;10284;-64
2022/11/06 09:21:52;;;;;;;;;4.00;2.75;;;;;10.48;84.05;100893.06;5010870;28;10890;-65
2022/11/06 09:24:20;;;;;;;;;6.00;3.00;;;;;10.52;83.41;100875.50;5026644;28;10013;-65
2022/11/06 09:27:07;;;;;;;;;5.00;5.00;;;;;10.60;83.65;100879.94;5040761;28;9967;-66
2022/11/06 09:29:33;;;;;;;;;3.25;3.25;;;;;10.61;83.16;100876.22;5018435;28;10112;-65
2022/11/06 09:31:59;;;;;;;;;2.00;2.00;;;;;10.61;83.18;100869.00;5027445;28;10140;-65
2022/11/06 09:34:26;;;;;;;;;4.00;4.00;;;;;10.61;83.37;100874.38;5026736;28;10011;-65
2022/11/06 09:36:52;;;;;;;;;4.00;4.00;;;;;10.59;83.57;100872.91;5032879;28;10063;-64
2022/11/06 09:39:22;;;;;;;;;2.50;2.25;;;;;10.63;82.98;100874.19;5050020;28;10206;-65
2022/11/06 09:41:59;;;;;;;;;3.75;3.75;;;;;10.68;83.37;100877.09;5018762;28;9865;-64
2022/11/06 09:44:41;;;;;;;;;3.50;3.50;;;;;10.70;83.42;100877.75;5010736;28;10091;-64
2022/11/06 09:47:31;;;;;;;;;3.25;3.25;;;;;10.70;83.07;100875.06;5017270;28;10633;-64
2022/11/06 09:49:58;;;;;;;;;2.25;2.25;;;;;10.72;83.56;100886.47;5019597;28;10110;-64
2022/11/06 09:52:47;;;;;;;;;2.00;2.00;;;;;10.77;83.14;100891.25;5039072;28;9833;-65
2022/11/06 09:55:19;;;;;;;;;3.75;3.50;;;;;10.80;83.19;100883.63;5019246;28;9989;-64
2022/11/06 09:57:50;;;;;;;;;4.25;2.75;;;;;10.83;83.09;100891.31;5020380;28;10636;-65
2022/11/06 10:00:17;;;;;;;;;5.25;4.50;;;;;10.75;83.13;100877.16;5041146;28;9918;-65
2022/11/06 10:02:47;;;;;;;;;2.25;2.25;;;;;10.80;83.16;100875.56;5043037;28;10157;-65
2022/11/06 10:05:46;;;;;;;;;7.00;5.50;;;;;10.74;83.40;100864.75;5011457;28;9918;-65
2022/11/06 10:08:21;;;;;;;;;4.00;2.50;;;;;10.74;83.68;100860.19;5003236;28;10150;-65
2022/11/06 10:11:20;;;;;;;;;5.00;5.00;;;;;10.87;83.60;100860.28;5018272;28;9846;-65
2022/11/06 10:14:30;;;;;;;;;3.00;3.00;;;;;10.96;83.39;100850.19;5005556;28;9942;-65
2022/11/06 10:17:24;;;;;;;;;3.25;3.25;;;;;10.95;83.10;100845.00;5029693;28;10000;-65
2022/11/06 10:20:07;;;;;;;;;3.00;2.00;;;;;11.02;83.18;100841.34;5029726;28;9929;-65
2022/11/06 10:22:50;;;;;;;;;2.50;2.50;;;;;11.02;83.53;100838.66;5021852;28;9853;-65
2022/11/06 10:25:20;;;;;;;;;7.25;4.00;;;;;11.09;83.37;100835.97;5035913;28;9902;-65
2022/11/06 10:28:14;;;;;;;;;3.75;2.75;;;;;11.06;83.12;100833.66;5037721;28;9795;-66
2022/11/06 10:30:52;;;;;;;;;4.00;2.00;;;;;11.08;82.94;100835.16;5030555;28;9831;-65
2022/11/06 10:33:40;;;;;;;;;6.50;6.25;;;;;11.12;83.02;100833.72;5030304;28;9855;-65
2022/11/06 10:36:50;;;;;;;;;3.25;3.25;;;;;11.13;83.17;100837.25;5035289;28;9825;-65
2022/11/06 10:39:28;;;;;;;;;3.50;2.00;;;;;11.17;82.92;100829.59;5026773;28;9847;-65
2022/11/06 10:42:04;;;;;;;;;5.00;3.25;;;;;11.18;82.86;100826.72;5037712;28;9927;-66
2022/11/06 10:44:56;;;;;;;;;4.00;4.00;;;;;11.17;82.51;100825.03;5039850;28;9930;-65
2022/11/06 10:47:28;;;;;;;;;4.00;2.00;;;;;11.11;82.97;100812.38;5026537;28;9991;-65
2022/11/06 10:49:58;;;;;;;;;2.50;2.50;;;;;11.08;83.18;100818.16;5030155;28;9847;-64
2022/11/06 10:52:49;;;;;;;;;4.00;4.00;;;;;11.03;83.45;100804.47;5025124;28;9887;-66
2022/11/06 10:55:40;;;;;;;;;5.00;3.00;;;;;11.07;83.19;100790.38;5036631;28;9861;-64
2022/11/06 10:58:11;;;;;;;;;4.75;4.75;;;;;11.14;83.29;100801.22;5038492;28;9870;-64
2022/11/06 11:00:38;;;;;;;;;3.25;3.00;;;;;11.09;83.01;100782.09;5014538;28;9928;-65
2022/11/06 11:03:14;;;;;;;;;2.50;2.50;;;;;11.04;83.01;100785.41;5027742;28;9953;-65
2022/11/06 11:05:43;;;;;;;;;1.25;1.25;;;;;11.10;83.39;100787.31;5030054;28;9765;-64
2022/11/06 11:08:34;;;;;;;;;1.25;1.25;;;;;11.12;82.72;100774.44;5034389;28;9760;-65
2022/11/06 11:11:24;;;;;;;;;2.00;2.00;;;;;11.20;82.63;100770.75;5022258;28;9875;-64
2022/11/06 11:14:12;;;;;;;;;4.00;4.00;;;;;11.27;82.38;100760.84;5012780;28;9859;-64
2022/11/06 11:16:43;;;;;;;;;6.00;3.50;;;;;11.26;82.11;100758.34;5025514;28;9981;-65
2022/11/06 11:19:37;;;;;;;;;3.50;3.00;;;;;11.27;81.95;100762.72;5026373;28;9919;-66
2022/11/06 11:22:17;;;;;;;;;3.50;3.50;;;;;11.22;82.03;100752.56;5025183;28;9875;-64
2022/11/06 11:25:01;;;;;;;;;4.50;3.00;;;;;11.15;82.06;100743.59;5034613;28;10366;-64
2022/11/06 11:27:33;;;;;;;;;2.25;2.25;;;;;11.17;82.24;100746.09;5014946;28;9757;-64
2022/11/06 11:30:03;;;;;;;;;4.25;3.00;;;;;11.20;81.82;100746.50;5024671;28;9840;-64
2022/11/06 11:32:30;;;;;;;;;5.25;5.00;;;;;11.20;81.45;100733.03;5030385;28;9854;-64
2022/11/06 11:34:57;;;;;;;;;2.50;1.00;;;;;11.25;81.48;100741.34;5015447;28;10843;-64
2022/11/06 11:37:28;;;;;;;;;2.00;2.00;;;;;11.26;81.27;100743.03;5015578;28;9832;-64
2022/11/06 11:40:20;;;;;;;;;3.00;3.00;;;;;11.21;81.45;100739.25;5029372;28;9860;-65
2022/11/06 11:42:47;;;;;;;;;2.00;2.00;;;;;11.24;81.44;100737.00;5038601;28;9733;-65
2022/11/06 11:45:19;;;;;;;;;2.00;2.00;;;;;11.29;80.93;100733.69;5023816;28;10308;-66
2022/11/06 11:47:48;;;;;;;;;1.75;1.75;;;;;11.33;80.89;100733.09;5013594;28;9776;-66
2022/11/06 11:50:15;;;;;;;;;3.00;3.00;;;;;11.34;80.56;100721.28;5014430;28;9685;-66
2022/11/06 11:52:47;;;;;;;;;3.00;2.00;;;;;11.33;80.70;100719.63;5015185;28;9758;-67
2022/11/06 11:55:20;;;;;;;;;1.00;1.00;;;;;11.24;80.70;100714.63;5012724;28;9864;-67
2022/11/06 11:57:51;;;;;;;;;2.00;2.00;;;;;11.15;81.21;100713.97;5028962;28;9753;-65